Time;durP1;ratioP1;P1;durP2;ratioP2;P2;SDS_P1;SDS_P2;PMS_P1;PMS_P2;Temp;Humidity;BMP_temperature;BMP_pressure;BME280_temperature;BME280_humidity;BME280_pressure;Samples;Min_cycle;Max_cycle;Signal;HPM_P1;HPM_P2
2023/12/29 00:00:50;;;;;;;12.40;7.70;;;;;;;3.45;85.99;99556.77;218016;1268;139604;-68
2023/12/29 00:06:13;;;;;;;16.20;9.60;;;;;;;3.47;86.08;99550.96;216870;1269;139677;-66
2023/12/29 00:11:22;;;;;;;15.40;8.70;;;;;;;3.50;86.10;99546.16;218334;1267;141205;-67
2023/12/29 00:16:30;;;;;;;17.00;11.20;;;;;;;3.52;86.00;99541.02;216307;1270;139870;-67
2023/12/29 00:21:36;;;;;;;14.80;9.90;;;;;;;3.50;86.06;99535.58;215871;1268;297658;-66
2023/12/29 00:26:40;;;;;;;12.90;8.90;;;;;;;3.49;86.06;99536.34;216892;1269;141487;-67
2023/12/29 00:31:44;;;;;;;14.80;9.60;;;;;;;3.47;86.04;99535.11;217445;1268;140926;-67
2023/12/29 00:36:49;;;;;;;14.60;10.20;;;;;;;3.43;86.23;99527.88;216699;1268;140721;-66
2023/12/29 00:41:58;;;;;;;16.10;9.90;;;;;;;3.41;86.37;99522.73;215766;1272;139671;-66
2023/12/29 00:47:03;;;;;;;14.10;8.60;;;;;;;3.40;86.18;99516.38;215958;1270;140294;-66
2023/12/29 00:52:09;;;;;;;13.60;8.60;;;;;;;3.36;86.42;99513.60;215379;1268;139761;-66
2023/12/29 00:57:13;;;;;;;18.70;9.50;;;;;;;3.33;86.34;99505.73;217957;1268;139933;-68
2023/12/29 01:02:18;;;;;;;19.10;10.10;;;;;;;3.30;86.41;99499.55;216079;1268;140265;-68
2023/12/29 01:07:21;;;;;;;15.60;9.80;;;;;;;3.27;86.53;99495.36;215886;1272;140451;-69
2023/12/29 01:12:26;;;;;;;16.50;10.50;;;;;;;3.24;86.43;99492.02;216682;1270;140039;-67
2023/12/29 01:17:31;;;;;;;14.20;8.40;;;;;;;3.19;86.32;99488.29;215961;1270;139920;-67
2023/12/29 01:22:36;;;;;;;15.90;9.10;;;;;;;3.12;86.43;99479.89;217472;1268;140240;-68
2023/12/29 01:27:41;;;;;;;17.90;8.50;;;;;;;3.08;86.56;99480.67;216490;1270;140661;-67
2023/12/29 01:32:46;;;;;;;12.50;7.80;;;;;;;3.02;86.56;99470.66;217044;1271;139618;-67
2023/12/29 01:37:51;;;;;;;13.00;9.90;;;;;;;2.95;86.44;99458.12;216139;1271;140645;-65
2023/12/29 01:42:56;;;;;;;13.00;9.30;;;;;;;2.87;86.48;99460.65;215793;1270;139424;-65
2023/12/29 01:48:01;;;;;;;18.40;9.00;;;;;;;2.80;86.63;99459.95;216378;1268;139556;-65
2023/12/29 01:53:07;;;;;;;12.60;7.60;;;;;;;2.72;86.63;99450.66;216393;1268;141645;-65
2023/12/29 01:58:12;;;;;;;16.20;9.90;;;;;;;2.65;86.81;99446.96;215829;1271;140184;-66
2023/12/29 02:03:18;;;;;;;12.50;9.10;;;;;;;2.65;87.11;99443.23;216750;1268;141056;-65
2023/12/29 02:08:23;;;;;;;13.50;7.20;;;;;;;2.67;87.32;99442.89;218281;1268;152993;-65
2023/12/29 02:13:27;;;;;;;11.70;9.20;;;;;;;2.66;87.19;99434.21;218333;1270;140630;-66
2023/12/29 02:18:36;;;;;;;11.30;7.50;;;;;;;2.65;87.05;99434.01;216110;1269;141496;-67
2023/12/29 02:23:42;;;;;;;18.10;8.10;;;;;;;2.59;87.01;99430.27;217076;1270;139866;-66
2023/12/29 02:28:55;;;;;;;18.10;10.40;;;;;;;2.54;86.93;99424.08;218220;1268;140653;-66
2023/12/29 02:34:06;;;;;;;12.30;8.30;;;;;;;2.50;86.99;99421.89;215647;1273;140864;-65
2023/12/29 02:39:12;;;;;;;13.80;8.40;;;;;;;2.41;86.97;99416.13;217235;1268;139930;-66
2023/12/29 02:44:17;;;;;;;16.20;10.60;;;;;;;2.35;87.43;99411.52;215366;1270;140827;-65
2023/12/29 02:49:23;;;;;;;14.70;11.10;;;;;;;2.36;87.57;99406.86;217052;1270;140299;-64
2023/12/29 02:54:29;;;;;;;13.60;8.80;;;;;;;2.36;87.59;99407.02;215682;1268;141952;-66
2023/12/29 02:59:34;;;;;;;22.10;8.40;;;;;;;2.35;87.94;99413.25;215949;1270;140162;-65
2023/12/29 03:04:42;;;;;;;19.50;9.50;;;;;;;2.32;88.12;99412.25;216573;1268;139787;-65
2023/12/29 03:09:47;;;;;;;14.40;9.80;;;;;;;2.31;88.18;99409.09;215689;1272;140087;-66
2023/12/29 03:14:52;;;;;;;18.10;11.00;;;;;;;2.31;88.36;99406.48;215878;1268;139748;-65
2023/12/29 03:19:58;;;;;;;19.20;11.70;;;;;;;2.28;88.31;99404.68;216037;1268;140476;-64
2023/12/29 03:25:04;;;;;;;17.30;10.00;;;;;;;2.29;88.94;99404.05;215895;1268;140139;-66
2023/12/29 03:30:10;;;;;;;15.50;9.20;;;;;;;2.31;88.84;99398.73;216118;1268;139880;-66
2023/12/29 03:35:16;;;;;;;18.90;10.70;;;;;;;2.36;89.17;99398.45;217170;1268;139935;-67
2023/12/29 03:40:22;;;;;;;13.70;8.40;;;;;;;2.44;89.53;99394.38;216597;1271;139988;-66
2023/12/29 03:45:27;;;;;;;15.20;9.50;;;;;;;2.53;89.54;99391.52;217628;1270;140224;-66
2023/12/29 03:50:32;;;;;;;12.30;9.20;;;;;;;2.59;89.49;99387.36;218390;1268;140100;-64
2023/12/29 03:55:37;;;;;;;18.20;9.70;;;;;;;2.65;89.72;99386.56;217604;1268;139968;-66
2023/12/29 04:00:42;;;;;;;15.40;9.50;;;;;;;2.72;89.68;99373.41;217537;1268;139526;-66
2023/12/29 04:05:47;;;;;;;12.00;8.00;;;;;;;2.81;90.06;99364.61;218460;1268;140634;-67
2023/12/29 04:10:51;;;;;;;14.70;9.10;;;;;;;2.89;90.12;99353.38;218466;1268;139558;-66
2023/12/29 04:15:56;;;;;;;13.60;8.10;;;;;;;2.96;90.11;99350.17;218275;1269;139882;-64
2023/12/29 04:21:01;;;;;;;12.70;8.20;;;;;;;3.06;90.27;99363.75;218391;1270;140319;-65
2023/12/29 04:26:05;;;;;;;11.30;8.00;;;;;;;3.13;90.33;99361.52;216447;1268;139601;-65
2023/12/29 04:31:10;;;;;;;13.60;8.20;;;;;;;3.23;90.61;99364.52;216938;1268;140262;-63
2023/12/29 04:36:15;;;;;;;12.90;9.60;;;;;;;3.33;90.74;99357.96;218171;1268;142699;-64
2023/12/29 04:41:20;;;;;;;12.90;8.40;;;;;;;3.41;90.81;99341.19;216218;1268;140326;-65
2023/12/29 04:46:25;;;;;;;13.10;7.20;;;;;;;3.51;90.95;99337.10;215828;1269;139539;-63
2023/12/29 04:51:30;;;;;;;9.40;5.80;;;;;;;3.57;90.97;99323.49;217590;1268;139814;-65
2023/12/29 04:56:35;;;;;;;9.70;6.60;;;;;;;3.59;90.55;99325.65;216657;1268;141137;-64
2023/12/29 05:01:39;;;;;;;13.20;6.90;;;;;;;3.57;90.24;99330.05;215689;1268;139660;-66
2023/12/29 05:06:44;;;;;;;11.20;8.70;;;;;;;3.53;90.30;99323.88;217162;1268;139663;-66
2023/12/29 05:11:49;;;;;;;14.40;9.00;;;;;;;3.51;90.24;99321.19;216243;1268;141762;-63
2023/12/29 05:16:55;;;;;;;11.10;7.30;;;;;;;3.47;90.32;99321.11;215455;1268;140078;-65
2023/12/29 05:21:59;;;;;;;11.30;8.10;;;;;;;3.44;90.40;99321.66;216153;1272;140561;-65
2023/12/29 05:27:04;;;;;;;13.00;8.40;;;;;;;3.42;90.45;99319.30;216262;1268;139803;-65
2023/12/29 05:32:09;;;;;;;11.10;6.00;;;;;;;3.40;90.48;99317.80;216423;1272;140337;-65
2023/12/29 05:37:13;;;;;;;15.50;8.10;;;;;;;3.39;90.47;99314.46;216006;1272;140970;-65
2023/12/29 05:42:18;;;;;;;11.30;7.50;;;;;;;3.38;90.52;99310.65;215700;1268;140134;-65
2023/12/29 05:47:23;;;;;;;17.30;8.40;;;;;;;3.38;90.61;99307.30;216436;1268;141861;-66
2023/12/29 05:52:28;;;;;;;11.50;8.10;;;;;;;3.42;90.80;99305.89;218289;1268;141335;-66
2023/12/29 05:57:33;;;;;;;8.20;5.00;;;;;;;3.47;90.84;99305.66;216101;1268;140068;-66
2023/12/29 06:02:37;;;;;;;8.30;6.20;;;;;;;3.58;91.15;99304.07;217043;1268;139653;-66
2023/12/29 06:07:42;;;;;;;11.50;6.80;;;;;;;3.70;91.38;99304.52;218396;1268;140214;-68
2023/12/29 06:12:47;;;;;;;11.10;7.70;;;;;;;3.84;91.34;99306.82;218386;1269;142038;-68
2023/12/29 06:17:52;;;;;;;6.40;4.40;;;;;;;3.96;91.35;99309.87;218030;1270;140712;-67
2023/12/29 06:22:57;;;;;;;9.30;5.50;;;;;;;4.06;90.99;99298.75;218412;1272;140157;-67
2023/12/29 06:28:06;;;;;;;7.00;5.50;;;;;;;4.13;90.66;99297.90;216388;1270;141095;-68
2023/12/29 06:33:11;;;;;;;7.40;6.10;;;;;;;4.18;90.50;99291.04;215785;1273;140254;-68
2023/12/29 06:38:15;;;;;;;12.10;6.50;;;;;;;4.21;90.44;99286.77;216831;1268;140893;-64
2023/12/29 06:43:22;;;;;;;9.30;7.10;;;;;;;4.23;90.49;99290.72;217745;1268;139959;-66
2023/12/29 06:48:28;;;;;;;;;;;;;;;4.26;90.44;99295.63;216982;1272;140148;-66
2023/12/29 06:53:33;;;;;;;6.40;5.70;;;;;;;4.28;90.52;99288.55;217191;1271;126081;-68
2023/12/29 06:58:38;;;;;;;9.90;5.90;;;;;;;4.32;90.43;99277.86;215674;1268;142061;-66
2023/12/29 07:03:43;;;;;;;9.80;6.30;;;;;;;4.35;90.06;99280.25;216603;1271;141482;-65
2023/12/29 07:08:50;;;;;;;6.80;4.60;;;;;;;4.35;90.12;99276.19;217169;1268;140703;-66
2023/12/29 07:13:54;;;;;;;13.00;8.30;;;;;;;4.31;89.63;99277.45;217435;1268;139536;-65
2023/12/29 07:18:58;;;;;;;9.70;6.20;;;;;;;4.28;89.65;99273.09;216204;1268;139963;-69
2023/12/29 07:24:04;;;;;;;9.20;6.50;;;;;;;4.27;89.68;99280.85;215430;1273;140032;-68
2023/12/29 07:29:09;;;;;;;13.30;6.60;;;;;;;4.26;89.76;99280.60;216321;1271;142119;-66
2023/12/29 07:34:13;;;;;;;7.20;5.40;;;;;;;4.24;89.65;99279.52;217026;1272;139777;-66
2023/12/29 07:39:19;;;;;;;11.00;7.20;;;;;;;4.23;89.63;99281.42;217618;1268;139708;-66
2023/12/29 07:44:24;;;;;;;7.70;5.80;;;;;;;4.24;89.76;99275.50;216732;1270;140613;-67
2023/12/29 07:49:30;;;;;;;6.90;6.10;;;;;;;4.26;89.61;99273.10;216051;1273;140390;-65
2023/12/29 07:54:34;;;;;;;7.20;5.80;;;;;;;4.27;89.56;99267.98;217349;1271;141678;-66
2023/12/29 07:59:39;;;;;;;7.60;5.80;;;;;;;4.29;89.43;99268.61;217390;1268;139952;-66
2023/12/29 08:04:46;;;;;;;9.10;6.80;;;;;;;4.31;89.65;99263.70;216561;1270;139923;-66
2023/12/29 08:09:51;;;;;;;9.00;7.20;;;;;;;4.34;89.53;99251.83;217989;1272;139757;-66
2023/12/29 08:14:56;;;;;;;10.60;6.60;;;;;;;4.37;89.75;99242.30;218392;1268;139821;-67
2023/12/29 08:20:02;;;;;;;6.50;5.00;;;;;;;4.43;89.73;99244.15;218077;1270;140288;-66
2023/12/29 08:25:06;;;;;;;7.70;5.40;;;;;;;4.50;89.87;99246.05;217306;1268;140135;-67
2023/12/29 08:30:11;;;;;;;7.00;4.70;;;;;;;4.57;89.88;99256.35;217673;1268;139867;-67
2023/12/29 08:35:16;;;;;;;7.40;5.60;;;;;;;4.67;89.94;99256.67;215841;1272;139662;-65
2023/12/29 08:40:21;;;;;;;8.50;5.70;;;;;;;4.81;89.97;99256.80;216516;1268;139357;-68
2023/12/29 08:45:27;;;;;;;9.30;6.30;;;;;;;4.93;90.55;99254.52;215829;1268;141273;-67
2023/12/29 08:50:32;;;;;;;9.30;6.10;;;;;;;5.01;90.20;99264.66;216078;1268;139515;-68
2023/12/29 08:55:36;;;;;;;11.70;6.50;;;;;;;5.11;89.99;99269.42;216033;1268;139930;-68
2023/12/29 09:00:42;;;;;;;8.30;5.50;;;;;;;5.23;90.01;99273.86;216932;1271;139705;-68
2023/12/29 09:05:47;;;;;;;9.20;5.80;;;;;;;5.35;90.13;99277.71;216674;1272;140366;-67
2023/12/29 09:10:51;;;;;;;10.00;6.30;;;;;;;5.44;89.65;99283.11;215941;1272;139627;-66
2023/12/29 09:15:57;;;;;;;7.50;5.40;;;;;;;5.50;89.84;99282.86;215400;1273;140009;-67
2023/12/29 09:21:02;;;;;;;7.50;5.50;;;;;;;5.53;90.16;99283.61;216280;1269;140332;-67
2023/12/29 09:26:07;;;;;;;6.80;4.60;;;;;;;5.56;89.63;99277.73;217401;1270;139363;-67
2023/12/29 09:31:13;;;;;;;7.00;5.30;;;;;;;5.59;89.83;99271.77;216278;1272;140139;-66
2023/12/29 09:36:17;;;;;;;8.10;4.90;;;;;;;5.63;89.76;99271.67;217171;1272;140172;-66
2023/12/29 09:41:25;;;;;;;8.70;5.90;;;;;;;5.68;89.65;99268.31;216571;1272;140852;-66
2023/12/29 09:46:33;;;;;;;10.50;5.80;;;;;;;5.77;89.74;99262.22;216269;1268;140032;-66
2023/12/29 09:51:38;;;;;;;8.60;5.70;;;;;;;5.92;89.58;99260.33;215660;1272;139413;-66
2023/12/29 09:56:42;;;;;;;6.50;5.50;;;;;;;6.08;89.59;99264.77;216883;1272;140167;-66
2023/12/29 10:01:48;;;;;;;6.80;5.80;;;;;;;6.18;89.62;99265.60;217710;1270;140211;-66
2023/12/29 10:06:54;;;;;;;6.10;4.80;;;;;;;6.32;89.22;99256.23;217011;1273;139757;-66
2023/12/29 10:12:03;;;;;;;11.10;5.80;;;;;;;6.49;89.50;99254.46;217628;1270;140103;-65
2023/12/29 11:37:26;;;;;;;6.00;2.70;;;;;;;9.18;85.00;99182.17;210660;1298;235932;-67
2023/12/29 11:53:47;;;;;;;4.30;3.30;;;;;;;9.26;83.56;99169.71;213947;1277;140963;-66
2023/12/29 11:58:50;;;;;;;4.70;2.90;;;;;;;9.20;83.39;99151.84;216318;1267;139802;-67
2023/12/29 12:03:53;;;;;;;4.00;2.40;;;;;;;9.21;83.05;99148.45;217825;1267;140062;-67
2023/12/29 12:09:18;;;;;;;5.80;2.50;;;;;;;9.25;82.94;99159.06;216195;1267;139176;-66
2023/12/29 12:14:52;;;;;;;4.10;3.40;;;;;;;9.34;82.68;99171.46;217139;1269;139276;-69
2023/12/29 12:20:03;;;;;;;6.40;3.20;;;;;;;9.40;82.34;99163.64;215726;1270;139162;-66
2023/12/29 12:25:06;;;;;;;4.00;2.70;;;;;;;9.53;82.36;99154.52;215566;1272;139104;-66
2023/12/29 12:30:11;;;;;;;4.70;2.40;;;;;;;9.66;82.25;99164.36;215506;1267;141845;-68
2023/12/29 12:35:16;;;;;;;3.40;2.20;;;;;;;9.68;81.90;99163.97;215513;1270;139997;-65
2023/12/29 12:40:27;;;;;;;3.60;2.80;;;;;;;9.73;81.70;99161.40;217394;1267;139927;-65
2023/12/29 12:45:40;;;;;;;2.30;1.50;;;;;;;9.84;81.39;99161.16;216972;1267;139280;-66
2023/12/29 12:50:46;;;;;;;4.40;2.00;;;;;;;9.90;80.98;99169.25;216547;1269;139669;-67
2023/12/29 12:55:52;;;;;;;1.80;1.60;;;;;;;9.86;80.54;99171.38;215829;1267;140385;-67
2023/12/29 13:00:58;;;;;;;3.10;2.20;;;;;;;9.81;80.42;99165.27;215608;1268;140137;-67
2023/12/29 13:06:04;;;;;;;2.20;1.70;;;;;;;9.79;80.08;99159.02;215806;1270;140096;-67
2023/12/29 13:11:25;;;;;;;2.30;2.10;;;;;;;9.76;79.92;99164.05;217228;1271;139229;-67
2023/12/29 13:16:30;;;;;;;4.00;2.30;;;;;;;9.74;79.83;99160.98;215758;1268;139448;-67
2023/12/29 13:21:35;;;;;;;18.40;3.80;;;;;;;9.70;79.76;99157.52;216713;1270;140316;-66
2023/12/29 13:26:38;;;;;;;2.70;2.10;;;;;;;9.69;79.57;99162.98;216681;1267;139705;-66
2023/12/29 13:31:42;;;;;;;2.50;1.90;;;;;;;9.70;79.36;99171.14;216099;1270;138969;-67
2023/12/29 13:37:25;;;;;;;3.10;2.10;;;;;;;9.70;79.36;99174.55;216568;1270;140568;-67
2023/12/29 13:42:49;;;;;;;3.00;1.90;;;;;;;9.68;78.97;99178.73;216214;1271;139344;-65
2023/12/29 13:47:53;;;;;;;1.30;1.30;;;;;;;9.62;78.78;99170.95;215484;1267;139537;-72
2023/12/29 13:52:55;;;;;;;2.30;1.40;;;;;;;9.56;78.58;99170.43;215983;1268;139757;-74
2023/12/29 13:57:58;;;;;;;1.70;1.50;;;;;;;9.50;78.39;99175.06;216261;1269;139007;-75
2023/12/29 14:03:10;;;;;;;1.80;1.30;;;;;;;9.39;78.36;99187.19;220440;1263;139003;-76
2023/12/29 14:08:26;;;;;;;4.00;2.10;;;;;;;9.30;78.28;99185.14;216061;1264;139137;-77
2023/12/29 14:13:28;;;;;;;1.90;1.40;;;;;;;9.17;78.14;99185.19;216093;1266;139183;-77
2023/12/29 14:18:34;;;;;;;3.10;2.00;;;;;;;9.04;78.18;99179.75;216148;1267;139181;-79
2023/12/29 14:23:37;;;;;;;3.70;2.10;;;;;;;8.92;78.22;99173.46;215927;1264;139281;-73
2023/12/29 14:28:39;;;;;;;2.50;2.30;;;;;;;8.76;78.12;99176.42;216118;1265;141671;-76
2023/12/29 14:33:45;;;;;;;2.90;1.80;;;;;;;8.64;78.19;99184.02;216501;1265;143839;-77
2023/12/29 14:38:47;;;;;;;2.80;1.80;;;;;;;8.54;78.42;99181.71;216332;1266;139439;-77
2023/12/29 14:43:53;;;;;;;4.20;2.00;;;;;;;8.46;78.59;99184.35;216209;1265;139259;-73
2023/12/29 14:48:58;;;;;;;3.30;2.70;;;;;;;8.38;78.64;99184.30;216456;1265;139415;-78
2023/12/29 14:54:03;;;;;;;3.60;2.70;;;;;;;8.30;78.64;99185.73;217440;1266;139423;-72
2023/12/29 14:59:11;;;;;;;5.30;2.80;;;;;;;8.22;78.80;99180.05;216323;1267;139015;-76
2023/12/29 15:04:14;;;;;;;7.00;3.70;;;;;;;8.15;79.11;99171.02;216440;1267;139687;-75
2023/12/29 15:09:17;;;;;;;5.40;3.60;;;;;;;8.05;79.05;99176.38;216224;1267;139176;-74
2023/12/29 15:14:20;;;;;;;10.40;5.90;;;;;;;7.94;79.23;99183.61;215981;1264;139936;-76
2023/12/29 15:19:23;;;;;;;4.70;3.20;;;;;;;7.84;79.42;99190.98;216172;1264;140118;-73
2023/12/29 15:24:27;;;;;;;7.80;3.30;;;;;;;7.76;79.67;99193.71;216161;1265;139065;-77
2023/12/29 15:29:31;;;;;;;5.10;3.70;;;;;;;7.73;79.85;99192.32;216308;1264;139595;-78
2023/12/29 15:34:34;;;;;;;3.90;2.90;;;;;;;7.75;79.86;99193.43;216003;1264;139018;-78
2023/12/29 15:39:40;;;;;;;5.90;3.20;;;;;;;7.78;80.38;99186.60;216405;1264;139965;-78
2023/12/29 15:44:45;;;;;;;;;;;;;;;7.81;80.37;99181.14;216195;1264;140232;-76
2023/12/29 15:49:49;;;;;;;8.30;4.70;;;;;;;7.77;80.51;99179.31;216581;1264;125581;-74
2023/12/29 15:54:51;;;;;;;8.70;4.10;;;;;;;7.76;80.44;99178.32;216144;1264;139791;-73
2023/12/29 15:59:54;;;;;;;9.10;5.10;;;;;;;7.77;81.00;99175.64;216295;1264;141446;-80
2023/12/29 16:04:58;;;;;;;5.10;4.10;;;;;;;7.78;80.93;99175.14;216295;1264;139834;-77
2023/12/29 16:10:04;;;;;;;7.70;3.60;;;;;;;7.76;80.89;99168.23;216210;1264;138934;-74
2023/12/29 16:15:09;;;;;;;7.30;5.00;;;;;;;7.69;80.68;99164.14;216861;1264;139689;-78
2023/12/29 16:20:11;;;;;;;213.80;97.60;;;;;;;7.65;80.84;99157.15;216521;1264;139463;-75
2023/12/29 16:25:14;;;;;;;49.20;29.70;;;;;;;7.61;80.94;99155.17;216897;1264;140226;-74
2023/12/29 16:30:19;;;;;;;16.50;10.10;;;;;;;7.55;81.01;99155.66;216190;1265;140152;-80
2023/12/29 16:35:22;;;;;;;8.50;5.70;;;;;;;7.49;80.98;99160.08;215898;1267;139653;-72
2023/12/29 16:40:25;;;;;;;8.40;4.80;;;;;;;7.44;81.14;99162.19;216231;1267;139673;-77
2023/12/29 16:45:31;;;;;;;7.60;5.80;;;;;;;7.41;81.25;99158.03;217206;1264;139398;-75
2023/12/29 16:50:33;;;;;;;7.60;5.70;;;;;;;7.38;81.30;99165.54;217771;1264;139272;-75
2023/12/29 16:55:39;;;;;;;8.70;4.30;;;;;;;7.35;81.04;99169.16;216515;1264;140289;-75
2023/12/29 17:00:47;;;;;;;6.70;4.00;;;;;;;7.34;81.53;99166.42;216207;1268;139382;-79
2023/12/29 17:06:02;;;;;;;6.60;4.10;;;;;;;7.34;81.39;99165.16;216208;1264;140302;-79
2023/12/29 17:11:06;;;;;;;8.50;4.20;;;;;;;7.37;81.42;99159.02;216728;1267;138818;-80
2023/12/29 17:16:11;;;;;;;3.70;3.30;;;;;;;7.41;81.56;99166.88;216401;1265;139119;-78
2023/12/29 17:21:17;;;;;;;4.90;3.10;;;;;;;7.47;81.53;99161.70;217238;1263;139668;-77
2023/12/29 17:26:20;;;;;;;4.70;3.20;;;;;;;7.52;81.59;99154.94;216239;1264;139786;-77
2023/12/29 17:31:23;;;;;;;4.10;3.00;;;;;;;7.58;81.52;99150.36;216749;1264;139040;-78
2023/12/29 17:36:26;;;;;;;4.50;2.90;;;;;;;7.65;81.53;99149.40;216768;1267;139880;-75
2023/12/29 17:41:29;;;;;;;4.50;2.90;;;;;;;7.72;81.48;99139.18;216350;1263;139988;-77
2023/12/29 17:46:32;;;;;;;7.00;3.60;;;;;;;7.79;81.20;99134.19;216228;1267;139964;-77
2023/12/29 17:51:37;;;;;;;4.50;3.40;;;;;;;7.85;81.17;99138.95;216332;1267;139503;-76
2023/12/29 17:56:40;;;;;;;4.90;2.90;;;;;;;7.89;81.02;99143.45;216097;1265;139365;-78
2023/12/29 18:01:42;;;;;;;4.00;3.60;;;;;;;7.93;80.79;99143.75;217262;1263;139486;-73
2023/12/29 18:06:44;;;;;;;3.40;2.50;;;;;;;7.96;80.94;99139.39;216524;1265;139510;-76
2023/12/29 18:11:58;;;;;;;6.60;3.90;;;;;;;7.99;80.44;99133.61;216387;1267;140130;-77
2023/12/29 18:17:00;;;;;;;4.00;2.50;;;;;;;8.00;80.58;99131.72;216105;1267;139199;-75
2023/12/29 18:22:03;;;;;;;6.40;5.00;;;;;;;8.01;80.56;99141.25;216061;1265;139644;-72
2023/12/29 18:27:06;;;;;;;4.80;3.70;;;;;;;8.02;80.25;99139.63;215887;1265;139979;-76
2023/12/29 18:32:09;;;;;;;7.90;3.70;;;;;;;8.03;80.25;99143.21;215895;1264;140262;-75
2023/12/29 18:37:25;;;;;;;4.70;2.90;;;;;;;8.05;80.16;99138.32;215748;1264;139084;-74
2023/12/29 18:42:29;;;;;;;6.20;4.40;;;;;;;8.08;80.03;99137.90;218613;1264;140254;-73
2023/12/29 18:47:32;;;;;;;5.00;3.50;;;;;;;8.10;80.00;99136.58;215619;1267;139745;-73
2023/12/29 18:52:36;;;;;;;6.00;3.20;;;;;;;8.10;80.07;99140.71;216218;1264;151317;-75
2023/12/29 18:57:39;;;;;;;6.80;4.00;;;;;;;8.11;79.84;99135.27;215841;1264;139584;-74
2023/12/29 19:02:42;;;;;;;4.10;3.30;;;;;;;8.13;80.13;99133.65;215854;1264;141232;-73
2023/12/29 19:07:45;;;;;;;3.50;3.20;;;;;;;8.15;79.76;99127.16;215595;1265;139848;-73
2023/12/29 19:12:48;;;;;;;3.90;2.60;;;;;;;8.16;79.75;99133.27;215973;1265;139478;-73
2023/12/29 19:17:52;;;;;;;7.20;3.10;;;;;;;8.17;79.70;99124.71;215790;1267;142438;-74
2023/12/29 19:22:57;;;;;;;7.10;3.20;;;;;;;8.17;79.60;99121.23;215713;1264;140239;-73
2023/12/29 19:28:01;;;;;;;4.90;3.10;;;;;;;8.19;79.76;99120.63;215694;1264;140157;-74
2023/12/29 19:33:06;;;;;;;3.50;2.50;;;;;;;8.21;79.67;99124.12;216423;1265;140382;-73
2023/12/29 19:38:12;;;;;;;9.70;3.70;;;;;;;8.21;79.59;99126.39;215879;1264;139813;-73
2023/12/29 19:43:15;;;;;;;4.20;2.20;;;;;;;8.21;79.47;99130.92;215920;1264;140120;-74
2023/12/29 19:48:18;;;;;;;6.90;3.70;;;;;;;8.23;79.57;99130.37;215825;1265;140926;-75
2023/12/29 19:53:21;;;;;;;4.10;2.90;;;;;;;8.21;79.27;99129.91;215990;1265;139424;-74
2023/12/29 19:58:25;;;;;;;5.60;3.20;;;;;;;8.20;79.27;99134.09;216137;1267;140238;-75
2023/12/29 20:03:31;;;;;;;3.80;3.00;;;;;;;8.21;79.28;99135.75;215858;1264;139323;-75
2023/12/29 20:08:34;;;;;;;5.90;2.80;;;;;;;8.22;79.37;99146.39;215834;1264;141223;-74
2023/12/29 20:13:38;;;;;;;5.90;3.40;;;;;;;8.23;79.08;99149.81;215742;1265;139644;-73
2023/12/29 20:18:40;;;;;;;3.70;3.10;;;;;;;8.21;79.17;99150.20;215862;1267;141371;-74
2023/12/29 20:23:44;;;;;;;3.60;3.00;;;;;;;8.20;79.19;99151.23;215770;1265;139536;-74
2023/12/29 20:28:48;;;;;;;5.70;3.70;;;;;;;8.18;78.87;99152.19;215897;1264;140433;-76
2023/12/29 20:33:52;;;;;;;7.70;3.60;;;;;;;8.13;78.98;99152.93;218782;1264;141472;-75
2023/12/29 20:38:58;;;;;;;6.00;3.90;;;;;;;8.11;79.05;99149.23;216585;1265;140407;-74
2023/12/29 20:44:01;;;;;;;6.10;3.90;;;;;;;8.13;79.10;99153.14;215719;1265;141983;-75
2023/12/29 20:49:04;;;;;;;6.50;3.80;;;;;;;8.14;79.08;99149.92;215773;1267;140403;-75
2023/12/29 20:54:08;;;;;;;4.40;2.90;;;;;;;8.14;79.05;99152.00;216130;1265;140551;-73
2023/12/29 20:59:11;;;;;;;7.50;5.20;;;;;;;8.15;79.19;99150.16;215883;1265;139497;-74
2023/12/29 21:04:14;;;;;;;6.40;3.00;;;;;;;8.16;79.07;99153.52;216383;1264;139700;-74
2023/12/29 21:09:17;;;;;;;3.80;2.60;;;;;;;8.17;79.15;99150.94;216635;1265;140517;-72
2023/12/29 21:14:21;;;;;;;9.90;4.00;;;;;;;8.17;79.01;99147.34;215718;1265;139704;-73
2023/12/29 21:19:27;;;;;;;6.30;3.40;;;;;;;8.19;79.08;99148.86;215786;1267;139966;-74
2023/12/29 21:24:30;;;;;;;5.30;3.00;;;;;;;8.17;79.03;99142.77;215689;1267;140150;-74
2023/12/29 21:29:33;;;;;;;3.70;2.30;;;;;;;8.16;78.98;99138.25;215905;1265;140143;-74
2023/12/29 21:34:35;;;;;;;6.70;3.50;;;;;;;8.16;79.07;99132.14;215870;1265;139459;-77
2023/12/29 21:39:40;;;;;;;7.80;3.70;;;;;;;8.14;79.04;99126.23;215918;1266;139403;-74
2023/12/29 21:44:43;;;;;;;5.40;3.90;;;;;;;8.07;78.91;99128.70;216098;1267;142136;-73
2023/12/29 21:49:46;;;;;;;4.80;3.50;;;;;;;7.96;78.89;99128.52;215970;1264;139976;-74
2023/12/29 21:54:49;;;;;;;7.90;2.90;;;;;;;7.89;78.90;99132.39;215781;1267;140423;-73
2023/12/29 21:59:52;;;;;;;4.60;3.10;;;;;;;7.81;79.13;99134.28;215739;1268;139625;-71
2023/12/29 22:04:54;;;;;;;7.20;2.90;;;;;;;7.74;79.00;99131.25;215950;1265;139134;-73
2023/12/29 22:09:57;;;;;;;4.70;3.80;;;;;;;7.70;79.06;99127.39;215553;1265;139432;-72
2023/12/29 22:15:00;;;;;;;5.70;3.00;;;;;;;7.67;79.33;99119.48;215823;1268;140233;-73
2023/12/29 22:20:04;;;;;;;6.90;3.00;;;;;;;7.68;79.68;99125.43;215760;1268;139942;-73
2023/12/29 22:25:08;;;;;;;5.00;3.10;;;;;;;7.72;79.87;99116.84;219004;1264;139538;-73
2023/12/29 22:30:11;;;;;;;3.90;2.90;;;;;;;7.75;79.84;99114.86;218609;1265;388661;-73
2023/12/29 22:35:14;;;;;;;5.20;2.60;;;;;;;7.81;79.83;99114.27;216012;1268;141422;-74
2023/12/29 22:40:17;;;;;;;4.40;3.10;;;;;;;7.85;79.89;99111.08;217381;1265;139813;-74
2023/12/29 22:45:20;;;;;;;5.20;2.70;;;;;;;7.86;79.56;99110.48;216114;1267;140980;-73
2023/12/29 22:50:23;;;;;;;4.50;2.90;;;;;;;7.87;79.73;99097.43;218225;1264;140081;-73
2023/12/29 22:55:26;;;;;;;5.60;3.10;;;;;;;7.86;79.74;99091.78;216904;1264;139691;-74
2023/12/29 23:00:35;;;;;;;4.40;2.20;;;;;;;7.83;79.80;99085.09;215725;1265;139906;-73
2023/12/29 23:05:38;;;;;;;3.80;3.20;;;;;;;7.81;79.75;99090.23;215612;1267;140588;-74
2023/12/29 23:10:41;;;;;;;5.60;2.70;;;;;;;7.78;79.89;99084.92;215993;1265;140556;-74
2023/12/29 23:15:44;;;;;;;3.50;2.60;;;;;;;7.78;79.97;99087.58;215882;1264;140163;-73
2023/12/29 23:20:48;;;;;;;4.30;2.70;;;;;;;7.76;80.00;99084.67;215741;1265;139314;-75
2023/12/29 23:25:52;;;;;;;2.10;1.90;;;;;;;7.75;79.87;99081.73;215659;1265;141142;-75
2023/12/29 23:30:55;;;;;;;6.30;2.80;;;;;;;7.68;79.89;99071.48;216121;1264;140401;-72
2023/12/29 23:35:58;;;;;;;3.50;2.20;;;;;;;7.57;79.89;99061.70;215937;1267;139261;-73
2023/12/29 23:41:01;;;;;;;3.00;2.30;;;;;;;7.47;79.87;99052.56;215568;1265;141318;-74
2023/12/29 23:46:04;;;;;;;5.60;3.70;;;;;;;7.39;79.90;99045.85;215781;1267;139538;-72
2023/12/29 23:51:12;;;;;;;6.80;3.10;;;;;;;7.30;80.15;99044.98;215835;1267;140212;-73
2023/12/29 23:56:15;;;;;;;7.10;3.20;;;;;;;7.25;80.35;99048.02;215561;1267;139453;-72
